CheckWX is a tool to help pilots better visualize weather data.  It is not intended as a substitute for an official pre-flight weather briefing.

10:17:15 UTC

WADD TAF
Ngurah Rai (Bali) International Airport
Denpasar-Bali Island, Indonesia
TAF WADD 260500Z 2606/2706 12015KT 9999 SCT017 TEMPO 2621/2700 VRB05KT

Jun-26@
06:00 UTC

Jun-26 @ 06:00 UTC

Jun-27@
06:00 UTC

Jun-27 @ 06:00 UTC

TAF WADD 260500Z 2606/2706 12015KT 9999 SCT017
Wind
  • 120° at 15 KTS
Cloud Levels
  • Scattered at 1,700' AGL

Jun-26@
21:00 UTC

Jun-26 @ 21:00 UTC

Jun-27@
00:00 UTC

Jun-27 @ 00:00 UTC

TEMPO 2621/2700 VRB05KT

Temporary

Temporary Changes expected for less than half the time period

Wind
  • Variable at 5 KTS